createdAt,value
2017-09-16T00:02:20.471Z,99718.76
2017-09-16T00:04:46.682Z,99723.15
2017-09-16T00:07:12.970Z,99721.74
2017-09-16T00:09:39.182Z,99721.67
2017-09-16T00:12:05.385Z,99716.40
2017-09-16T00:14:31.668Z,99725.44
2017-09-16T00:16:57.895Z,99722.33
2017-09-16T00:19:24.101Z,99720.92
2017-09-16T00:21:50.371Z,99723.39
2017-09-16T00:24:16.574Z,99717.16
2017-09-16T00:26:42.799Z,99718.55
2017-09-16T00:29:09.066Z,99720.02
2017-09-16T00:31:35.278Z,99716.98
2017-09-16T00:34:01.478Z,99713.24
2017-09-16T00:36:27.755Z,99720.42
2017-09-16T00:38:53.982Z,99717.89
2017-09-16T00:41:20.310Z,99723.22
2017-09-16T00:43:46.565Z,99719.20
2017-09-16T00:46:12.769Z,99713.53
2017-09-16T00:48:38.991Z,99712.98
2017-09-16T00:51:05.284Z,99708.69
2017-09-16T00:53:31.491Z,99700.34
2017-09-16T00:55:57.705Z,99698.09
2017-09-16T00:58:23.979Z,99712.20
2017-09-16T01:00:50.192Z,99701.71
2017-09-16T01:03:16.415Z,99702.73
2017-09-16T01:05:42.700Z,99706.89
2017-09-16T01:08:09.005Z,99703.21
2017-09-16T01:10:35.232Z,99703.34
2017-09-16T01:13:01.532Z,99703.06
2017-09-16T01:15:27.755Z,99709.08
2017-09-16T01:17:54.136Z,99707.73
2017-09-16T01:20:20.764Z,99713.85
2017-09-16T01:22:47.016Z,99710.95
2017-09-16T01:25:13.653Z,99711.91
2017-09-16T01:27:40.261Z,99706.45
2017-09-16T01:30:06.682Z,99703.94
2017-09-16T01:32:32.957Z,99698.76
2017-09-16T01:34:59.185Z,99695.53
2017-09-16T01:37:25.395Z,99697.19
2017-09-16T01:39:51.626Z,99679.05
2017-09-16T01:42:17.854Z,99698.54
2017-09-16T01:44:44.096Z,99706.84
2017-09-16T01:47:10.320Z,99704.47
2017-09-16T01:49:36.552Z,99699.23
2017-09-16T01:52:02.913Z,99707.05
2017-09-16T01:54:29.377Z,99696.95
2017-09-16T01:56:55.842Z,99701.37
2017-09-16T01:59:22.254Z,99700.34
2017-09-16T02:01:48.678Z,99696.47
2017-09-16T02:04:14.938Z,99698.47
2017-09-16T02:06:41.171Z,99695.63
2017-09-16T02:09:07.680Z,99695.44
2017-09-16T02:11:34.095Z,99689.11
2017-09-16T02:14:00.682Z,99685.16
2017-09-16T02:16:27.331Z,99684.34
2017-09-16T02:18:53.739Z,99682.64
2017-09-16T02:21:19.949Z,99685.05
2017-09-16T02:23:46.239Z,99684.27
2017-09-16T02:26:12.465Z,99682.77
2017-09-16T02:28:38.672Z,99687.42
2017-09-16T02:31:04.952Z,99679.77
2017-09-16T02:33:31.185Z,99681.95
2017-09-16T02:35:57.540Z,99679.03
2017-09-16T02:38:24.026Z,99676.34
2017-09-16T02:40:50.471Z,99678.76
2017-09-16T02:43:16.917Z,99671.97
2017-09-16T02:45:43.457Z,99672.36
2017-09-16T02:48:09.729Z,99675.23
2017-09-16T02:50:35.921Z,99680.26
2017-09-16T02:53:02.385Z,99683.88
2017-09-16T02:55:28.602Z,99682.40
2017-09-16T02:57:54.805Z,99683.33
2017-09-16T03:00:21.072Z,99676.85
2017-09-16T03:02:47.483Z,99678.29
2017-09-16T03:05:13.720Z,99681.66
2017-09-16T03:07:40.004Z,99676.03
2017-09-16T03:10:06.222Z,99682.69
2017-09-16T03:12:32.471Z,99687.34
2017-09-16T03:14:58.769Z,99681.63
2017-09-16T03:17:25.000Z,99681.34
2017-09-16T03:19:51.235Z,99684.86
2017-09-16T03:22:17.500Z,99684.80
2017-09-16T03:24:43.730Z,99695.72
2017-09-16T03:27:09.954Z,99686.48
2017-09-16T03:29:36.225Z,99694.08
2017-09-16T03:32:02.434Z,99695.81
2017-09-16T03:34:28.650Z,99665.51
2017-09-16T03:36:54.936Z,99685.08
2017-09-16T03:39:21.333Z,99679.50
2017-09-16T03:41:47.556Z,99684.92
2017-09-16T03:44:13.835Z,99676.58
2017-09-16T03:46:40.063Z,99674.83
2017-09-16T03:49:06.871Z,99673.80
2017-09-16T03:51:33.511Z,99671.94
2017-09-16T03:53:59.945Z,99656.95
2017-09-16T03:56:26.582Z,99675.70
2017-09-16T03:58:52.891Z,99677.77
2017-09-16T04:01:19.107Z,99675.77
2017-09-16T04:03:45.352Z,99678.25
2017-09-16T04:06:11.867Z,99683.42
2017-09-16T04:08:38.289Z,99676.88
2017-09-16T04:11:04.629Z,99677.58
2017-09-16T04:13:31.206Z,99686.57
2017-09-16T04:15:57.639Z,99681.91
2017-09-16T04:18:24.073Z,99677.97
2017-09-16T04:20:50.697Z,99681.81
2017-09-16T04:23:17.144Z,99682.45
2017-09-16T04:25:43.784Z,99687.00
2017-09-16T04:28:10.079Z,99687.19
2017-09-16T04:30:36.316Z,99689.61
2017-09-16T04:33:02.529Z,99688.09
2017-09-16T04:35:28.886Z,99699.95
2017-09-16T04:37:55.102Z,99702.31
2017-09-16T04:40:21.319Z,99695.71
2017-09-16T04:42:47.596Z,99698.98
2017-09-16T04:45:13.819Z,99699.08
2017-09-16T04:47:40.045Z,99700.17
2017-09-16T04:50:06.318Z,99698.44
2017-09-16T04:52:32.549Z,99701.72
2017-09-16T04:54:58.795Z,99701.71
2017-09-16T04:57:25.083Z,99699.20
2017-09-16T04:59:51.306Z,99701.81
2017-09-16T05:02:17.523Z,99712.02
2017-09-16T05:04:43.816Z,99710.48
2017-09-16T05:07:10.044Z,99710.83
2017-09-16T05:09:36.277Z,99707.48
2017-09-16T05:12:02.544Z,99704.08
2017-09-16T05:14:28.770Z,99710.91
2017-09-16T05:16:54.992Z,99713.02
2017-09-16T05:19:21.269Z,99718.60
2017-09-16T05:21:47.506Z,99718.45
2017-09-16T05:24:13.735Z,99721.73
2017-09-16T05:26:40.018Z,99727.48
2017-09-16T05:29:06.245Z,99731.52
2017-09-16T05:31:32.476Z,99734.22
2017-09-16T05:33:58.746Z,99726.34
2017-09-16T05:36:24.988Z,99730.80
2017-09-16T05:38:51.226Z,99722.41
2017-09-16T05:41:17.504Z,99723.53
2017-09-16T05:43:43.721Z,99729.30
2017-09-16T05:46:09.994Z,99722.95
2017-09-16T05:48:36.237Z,99729.48
2017-09-16T05:51:02.601Z,99732.51
2017-09-16T05:53:28.816Z,99728.25
2017-09-16T05:55:55.092Z,99726.52
2017-09-16T05:58:21.307Z,99727.20
2017-09-16T06:00:47.545Z,99725.68
2017-09-16T06:03:13.815Z,99734.19
2017-09-16T06:05:40.050Z,99730.37
2017-09-16T06:08:06.294Z,99732.83
2017-09-16T06:10:32.548Z,99728.72
2017-09-16T06:12:58.766Z,99725.27
2017-09-16T06:15:24.974Z,99731.36
2017-09-16T06:17:51.242Z,99741.53
2017-09-16T06:20:17.465Z,99738.70
2017-09-16T06:22:43.682Z,99739.50
2017-09-16T06:25:09.964Z,99739.12
2017-09-16T06:27:36.193Z,99731.78
2017-09-16T06:30:02.428Z,99737.93
2017-09-16T06:32:28.712Z,99741.25
2017-09-16T06:34:54.945Z,99737.62
2017-09-16T06:37:21.161Z,99739.58
2017-09-16T06:39:47.441Z,99741.20
2017-09-16T06:42:13.775Z,99736.73
2017-09-16T06:44:39.998Z,99731.88
2017-09-16T06:47:06.273Z,99729.74
2017-09-16T06:49:32.498Z,99728.03
2017-09-16T06:51:58.741Z,99727.43
2017-09-16T06:54:25.023Z,99737.70
2017-09-16T06:56:51.247Z,99732.50
2017-09-16T06:59:17.449Z,99733.90
2017-09-16T07:01:43.739Z,99725.80
2017-09-16T07:04:09.967Z,99720.27
2017-09-16T07:06:36.408Z,99723.58
2017-09-16T07:09:02.688Z,99727.02
2017-09-16T07:11:28.916Z,99724.45
2017-09-16T07:13:55.129Z,99716.45
2017-09-16T07:16:21.391Z,99716.31
2017-09-16T07:18:47.612Z,99716.72
2017-09-16T07:21:13.839Z,99721.94
2017-09-16T07:23:40.125Z,99725.98
2017-09-16T07:26:06.355Z,99720.88
2017-09-16T07:28:32.585Z,99718.70
2017-09-16T07:30:58.858Z,99715.06
2017-09-16T07:33:25.081Z,99721.10
2017-09-16T07:35:51.294Z,99710.35
2017-09-16T07:38:17.569Z,99707.98
2017-09-16T07:40:43.811Z,99705.20
2017-09-16T07:43:10.053Z,99705.56
2017-09-16T07:45:36.321Z,99706.94
2017-09-16T07:48:02.529Z,99707.91
2017-09-16T07:50:28.745Z,99704.06
2017-09-16T07:52:55.032Z,99698.89
2017-09-16T07:55:21.245Z,99703.35
2017-09-16T07:57:47.475Z,99698.35
2017-09-16T08:00:13.767Z,99702.88
2017-09-16T08:02:40.024Z,99690.45
2017-09-16T08:05:06.218Z,99692.83
2017-09-16T08:07:32.516Z,99691.55
2017-09-16T08:09:58.726Z,99693.48
2017-09-16T08:12:24.937Z,99691.71
2017-09-16T08:14:51.194Z,99692.73
2017-09-16T08:17:17.419Z,99687.14
2017-09-16T08:19:43.652Z,99682.64
2017-09-16T08:22:09.926Z,99680.47
2017-09-16T08:24:36.158Z,99673.23
2017-09-16T08:27:02.391Z,99672.58
2017-09-16T08:29:28.683Z,99677.22
2017-09-16T08:31:54.895Z,99668.88
2017-09-16T08:34:21.121Z,99671.62
2017-09-16T08:36:47.410Z,99665.53
2017-09-16T08:39:13.621Z,99663.95
2017-09-16T08:41:39.861Z,99669.34
2017-09-16T08:44:06.147Z,99665.77
2017-09-16T08:46:32.387Z,99667.06
2017-09-16T08:48:58.611Z,99663.72
2017-09-16T08:51:24.892Z,99665.83
2017-09-16T08:53:51.113Z,99651.88
2017-09-16T08:56:17.341Z,99657.03
2017-09-16T08:58:43.628Z,99648.23
2017-09-16T09:01:09.858Z,99641.74
2017-09-16T09:03:36.076Z,99648.78
2017-09-16T09:06:02.355Z,99648.93
2017-09-16T09:08:28.575Z,99642.45
2017-09-16T09:10:54.781Z,99656.28
2017-09-16T09:13:21.019Z,99655.92
2017-09-16T09:15:47.244Z,99645.36
2017-09-16T09:18:13.480Z,99642.41
2017-09-16T09:20:39.750Z,99651.17
2017-09-16T09:23:05.961Z,99647.53
2017-09-16T09:25:32.173Z,99651.39
2017-09-16T09:27:58.476Z,99645.72
2017-09-16T09:30:24.682Z,99648.80
2017-09-16T09:32:50.912Z,99643.89
2017-09-16T09:35:17.182Z,99641.23
2017-09-16T09:37:43.412Z,99638.91
2017-09-16T09:40:09.640Z,99637.45
2017-09-16T09:42:35.910Z,99624.50
2017-09-16T09:45:02.139Z,99633.27
2017-09-16T09:47:28.360Z,99631.70
2017-09-16T09:49:54.642Z,99626.00
2017-09-16T09:52:20.913Z,99624.43
2017-09-16T09:54:47.161Z,99614.64
2017-09-16T09:57:13.480Z,99614.95
2017-09-16T09:59:39.711Z,99615.63
2017-09-16T10:02:05.936Z,99609.97
2017-09-16T10:04:32.221Z,99605.73
2017-09-16T10:06:58.439Z,99600.30
2017-09-16T10:09:24.652Z,99595.84
2017-09-16T10:11:50.932Z,99588.25
2017-09-16T10:14:17.314Z,99588.98
2017-09-16T10:16:43.545Z,99585.17
2017-09-16T10:19:09.844Z,99589.73
2017-09-16T10:21:36.044Z,99585.83
2017-09-16T10:24:02.249Z,99588.39
2017-09-16T10:26:28.517Z,99585.10
2017-09-16T10:28:54.738Z,99574.23
2017-09-16T10:31:20.960Z,99573.70
2017-09-16T10:33:47.222Z,99569.52
2017-09-16T10:36:13.440Z,99564.89
2017-09-16T10:38:39.668Z,99563.00
2017-09-16T10:41:05.939Z,99555.48
2017-09-16T10:43:32.177Z,99550.22
2017-09-16T10:45:58.389Z,99545.78
2017-09-16T10:48:24.642Z,99553.18
2017-09-16T10:50:50.905Z,99552.59
2017-09-16T10:53:17.117Z,99554.08
2017-09-16T10:55:43.392Z,99553.68
2017-09-16T10:58:09.598Z,99552.98
2017-09-16T11:00:35.818Z,99545.93
2017-09-16T11:03:02.088Z,99556.68
2017-09-16T11:05:28.308Z,99546.41
2017-09-16T11:07:54.543Z,99532.69
2017-09-16T11:10:20.829Z,99529.99
2017-09-16T11:12:47.076Z,99533.05
2017-09-16T11:15:13.301Z,99532.37
2017-09-16T11:17:39.675Z,99537.52
2017-09-16T11:20:05.911Z,99527.58
2017-09-16T11:22:32.136Z,99532.42
2017-09-16T11:24:58.416Z,99526.00
2017-09-16T11:27:24.644Z,99523.83
2017-09-16T11:29:50.884Z,99518.14
2017-09-16T11:32:17.156Z,99515.63
2017-09-16T11:34:43.402Z,99508.27
2017-09-16T11:37:09.619Z,99514.97
2017-09-16T11:39:35.903Z,99509.56
2017-09-16T11:42:02.137Z,99497.05
2017-09-16T11:44:28.357Z,99505.49
2017-09-16T11:46:54.782Z,99498.39
2017-09-16T11:49:20.995Z,99484.80
2017-09-16T11:51:47.207Z,99497.38
2017-09-16T11:54:13.480Z,99496.25
2017-09-16T11:56:39.703Z,99494.83
2017-09-16T11:59:05.918Z,99484.92
2017-09-16T12:01:32.173Z,99489.02
2017-09-16T12:03:58.398Z,99488.98
2017-09-16T12:06:24.609Z,99488.16
2017-09-16T12:08:50.906Z,99488.78
2017-09-16T12:11:17.111Z,99484.77
2017-09-16T12:13:43.320Z,99485.38
2017-09-16T12:16:09.588Z,99482.00
2017-09-16T12:18:35.815Z,99481.27
2017-09-16T12:21:02.030Z,99480.03
2017-09-16T12:23:28.288Z,99489.79
2017-09-16T12:25:54.498Z,99478.06
2017-09-16T12:28:20.719Z,99487.97
2017-09-16T12:30:46.969Z,99475.08
2017-09-16T12:33:13.180Z,99477.16
2017-09-16T12:35:39.375Z,99472.99
2017-09-16T12:38:05.636Z,99475.45
2017-09-16T12:40:31.839Z,99483.86
2017-09-16T12:42:58.059Z,99479.80
2017-09-16T12:45:24.331Z,99474.73
2017-09-16T12:47:50.519Z,99478.14
2017-09-16T12:50:16.770Z,99477.33
2017-09-16T12:52:43.025Z,99465.59
2017-09-16T12:55:09.394Z,99467.72
2017-09-16T12:57:35.585Z,99465.98
2017-09-16T13:00:01.860Z,99464.78
2017-09-16T13:02:28.062Z,99461.30
2017-09-16T13:04:54.249Z,99463.45
2017-09-16T13:07:20.568Z,99457.16
2017-09-16T13:09:46.773Z,99461.69
2017-09-16T13:12:12.954Z,99451.84
2017-09-16T13:14:39.229Z,99462.06
2017-09-16T13:17:05.439Z,99456.11
2017-09-16T13:19:31.655Z,99454.93
2017-09-16T13:21:57.895Z,99456.60
2017-09-16T13:24:24.086Z,99445.39
2017-09-16T13:26:50.291Z,99443.05
2017-09-16T13:29:16.497Z,99447.34
2017-09-16T13:31:42.702Z,99447.41
2017-09-16T13:34:08.911Z,99444.72
2017-09-16T13:36:35.124Z,99449.52
2017-09-16T13:39:01.319Z,99441.48
2017-09-16T13:41:27.557Z,99445.69
2017-09-16T13:43:53.755Z,99442.32
2017-09-16T13:46:19.968Z,99443.06
2017-09-16T13:48:46.161Z,99442.00
2017-09-16T13:51:12.376Z,99441.42
2017-09-16T13:53:38.694Z,99442.40
2017-09-16T13:56:04.961Z,99433.74
2017-09-16T13:58:31.206Z,99442.54
2017-09-16T14:00:57.439Z,99441.11
2017-09-16T14:03:23.637Z,99443.86
2017-09-16T14:05:49.893Z,99443.63
2017-09-16T14:08:16.115Z,99443.59
2017-09-16T14:10:42.336Z,99435.78
2017-09-16T14:13:08.598Z,99445.09
2017-09-16T14:15:34.809Z,99442.44
2017-09-16T14:18:01.014Z,99449.55
2017-09-16T14:20:27.256Z,99452.44
2017-09-16T14:22:53.475Z,99454.38
2017-09-16T14:25:19.683Z,99458.09
2017-09-16T14:27:45.945Z,99454.06
2017-09-16T14:30:12.138Z,99449.88
2017-09-16T14:32:38.523Z,99441.38
2017-09-16T14:35:04.760Z,99455.90
2017-09-16T14:37:30.981Z,99455.88
2017-09-16T14:39:57.211Z,99452.05
2017-09-16T14:42:23.481Z,99451.45
2017-09-16T14:44:49.661Z,99454.98
2017-09-16T14:47:15.932Z,99455.41
2017-09-16T14:49:42.192Z,99455.70
2017-09-16T14:52:08.414Z,99455.23
2017-09-16T14:54:34.632Z,99458.27
2017-09-16T14:57:00.907Z,99456.11
2017-09-16T14:59:27.270Z,99455.77
2017-09-16T15:01:53.478Z,99454.72
2017-09-16T15:04:19.752Z,99448.84
2017-09-16T15:06:45.972Z,99447.77
2017-09-16T15:09:12.169Z,99454.38
2017-09-16T15:11:38.419Z,99450.53
2017-09-16T15:14:04.631Z,99452.23
2017-09-16T15:16:30.844Z,99452.85
2017-09-16T15:18:57.100Z,99447.25
2017-09-16T15:21:23.293Z,99456.78
2017-09-16T15:23:49.506Z,99453.34
2017-09-16T15:26:15.778Z,99445.91
2017-09-16T15:28:41.996Z,99455.71
2017-09-16T15:31:08.221Z,99453.58
2017-09-16T15:33:34.494Z,99453.19
2017-09-16T15:36:00.851Z,99456.81
2017-09-16T15:38:27.074Z,99461.38
2017-09-16T15:40:53.356Z,99458.78
2017-09-16T15:43:19.560Z,99462.50
2017-09-16T15:45:45.772Z,99464.03
2017-09-16T15:48:12.047Z,99467.13
2017-09-16T15:50:38.255Z,99466.16
2017-09-16T15:53:04.467Z,99463.24
2017-09-16T15:55:30.718Z,99468.18
2017-09-16T15:57:56.919Z,99468.77
2017-09-16T16:00:23.129Z,99470.96
2017-09-16T16:02:49.371Z,99478.03
2017-09-16T16:05:15.579Z,99477.41
2017-09-16T16:07:41.780Z,99476.32
2017-09-16T16:10:08.043Z,99480.13
2017-09-16T16:12:34.273Z,99478.27
2017-09-16T16:15:00.503Z,99477.75
2017-09-16T16:17:26.759Z,99486.25
2017-09-16T16:19:52.962Z,99485.47
2017-09-16T16:22:19.167Z,99487.85
2017-09-16T16:24:45.423Z,99491.41
2017-09-16T16:27:11.618Z,99495.53
2017-09-16T16:29:37.806Z,99497.58
2017-09-16T16:32:04.069Z,99497.73
2017-09-16T16:34:30.294Z,99491.08
2017-09-16T16:36:56.609Z,99503.77
2017-09-16T16:39:22.859Z,99498.94
2017-09-16T16:41:49.039Z,99495.32
2017-09-16T16:44:15.256Z,99499.44
2017-09-16T16:46:41.497Z,99499.82
2017-09-16T16:49:07.708Z,99505.05
2017-09-16T16:51:33.994Z,99511.98
2017-09-16T16:54:00.258Z,99516.76
2017-09-16T16:56:26.476Z,99517.25
2017-09-16T16:58:52.682Z,99530.55
2017-09-16T17:01:18.942Z,99530.69
2017-09-16T17:03:45.197Z,99533.86
2017-09-16T17:06:11.419Z,99539.95
2017-09-16T17:08:37.725Z,99543.74
2017-09-16T17:11:03.952Z,99550.49
2017-09-16T17:13:30.179Z,99553.91
2017-09-16T17:15:56.434Z,99550.41
2017-09-16T17:18:22.655Z,99554.62
2017-09-16T17:20:48.907Z,99566.41
2017-09-16T17:23:15.173Z,99564.36
2017-09-16T17:25:41.584Z,99566.17
2017-09-16T17:28:07.817Z,99573.42
2017-09-16T17:30:34.067Z,99576.61
2017-09-16T17:33:00.275Z,99584.27
2017-09-16T17:35:26.468Z,99579.31
2017-09-16T17:37:52.748Z,99586.25
2017-09-16T17:40:19.003Z,99595.67
2017-09-16T17:42:45.384Z,99596.22
2017-09-16T17:45:11.637Z,99599.48
2017-09-16T17:47:37.835Z,99600.70
2017-09-16T17:50:04.047Z,99602.69
2017-09-16T17:52:30.330Z,99608.93
2017-09-16T17:54:56.531Z,99606.02
2017-09-16T17:57:22.729Z,99608.09
2017-09-16T17:59:48.989Z,99610.22
2017-09-16T18:02:15.227Z,99612.23
2017-09-16T18:04:41.425Z,99616.19
2017-09-16T18:07:07.777Z,99625.32
2017-09-16T18:09:33.965Z,99624.91
2017-09-16T18:12:00.153Z,99628.23
2017-09-16T18:14:26.423Z,99635.30
2017-09-16T18:16:52.616Z,99640.10
2017-09-16T18:19:18.834Z,99643.20
2017-09-16T18:21:45.104Z,99647.28
2017-09-16T18:24:11.317Z,99649.45
2017-09-16T18:26:37.540Z,99646.67
2017-09-16T18:29:03.806Z,99656.80
2017-09-16T18:31:30.001Z,99656.67
2017-09-16T18:33:56.215Z,99657.17
2017-09-16T18:36:22.484Z,99662.28
2017-09-16T18:38:48.689Z,99666.27
2017-09-16T18:41:14.922Z,99663.73
2017-09-16T18:43:41.177Z,99665.25
2017-09-16T18:46:07.376Z,99663.59
2017-09-16T18:48:33.585Z,99664.22
2017-09-16T18:50:59.853Z,99672.41
2017-09-16T18:53:26.068Z,99672.61
2017-09-16T18:55:52.296Z,99676.80
2017-09-16T18:58:18.573Z,99670.03
2017-09-16T19:00:44.832Z,99664.17
2017-09-16T19:03:11.156Z,99667.72
2017-09-16T19:05:37.449Z,99670.29
2017-09-16T19:08:03.672Z,99672.98
2017-09-16T19:10:30.026Z,99678.63
2017-09-16T19:12:56.291Z,99677.16
2017-09-16T19:15:22.516Z,99678.09
2017-09-16T19:17:48.732Z,99683.23
2017-09-16T19:20:15.029Z,99684.20
2017-09-16T19:22:41.343Z,99683.63
2017-09-16T19:25:07.571Z,99691.02
2017-09-16T19:27:33.849Z,99690.88
2017-09-16T19:30:00.047Z,99688.58
2017-09-16T19:32:26.244Z,99693.69
2017-09-16T19:34:52.493Z,99696.47
2017-09-16T19:37:18.673Z,99700.87
2017-09-16T19:39:44.881Z,99697.02
2017-09-16T19:42:11.161Z,99698.80
2017-09-16T19:44:37.379Z,99696.61
2017-09-16T19:47:03.572Z,99697.98
2017-09-16T19:49:29.839Z,99699.86
2017-09-16T19:51:56.028Z,99701.13
2017-09-16T19:54:22.362Z,99698.74
2017-09-16T19:56:48.620Z,99698.42
2017-09-16T19:59:15.448Z,99705.38
2017-09-16T20:01:41.673Z,99710.15
2017-09-16T20:04:07.933Z,99717.75
2017-09-16T20:06:34.134Z,99722.91
2017-09-16T20:09:00.354Z,99715.46
2017-09-16T20:11:26.614Z,99710.70
2017-09-16T20:13:52.837Z,99718.07
2017-09-16T20:16:19.050Z,99710.85
2017-09-16T20:18:45.313Z,99720.06
2017-09-16T20:21:11.521Z,99715.94
2017-09-16T20:23:37.741Z,99711.98
2017-09-16T20:26:03.991Z,99718.46
2017-09-16T20:28:30.199Z,99723.45
2017-09-16T20:30:56.609Z,99725.09
2017-09-16T20:33:22.888Z,99722.95
2017-09-16T20:35:49.083Z,99724.69
2017-09-16T20:38:15.301Z,99718.11
2017-09-16T20:40:41.574Z,99724.09
2017-09-16T20:43:07.784Z,99725.52
2017-09-16T20:45:33.990Z,99729.27
2017-09-16T20:48:00.280Z,99727.25
2017-09-16T20:50:26.492Z,99729.69
2017-09-16T20:52:52.698Z,99741.59
2017-09-16T20:55:18.971Z,99740.39
2017-09-16T20:57:45.181Z,99744.05
2017-09-16T21:00:11.397Z,99745.29
2017-09-16T21:02:37.670Z,99743.02
2017-09-16T21:05:03.881Z,99745.69
2017-09-16T21:07:30.102Z,99746.20
2017-09-16T21:09:56.370Z,99743.51
2017-09-16T21:12:22.578Z,99748.63
2017-09-16T21:14:48.800Z,99732.60
2017-09-16T21:17:15.056Z,99744.02
2017-09-16T21:19:41.259Z,99742.26
2017-09-16T21:22:07.464Z,99744.47
2017-09-16T21:24:33.710Z,99747.19
2017-09-16T21:26:59.919Z,99755.80
2017-09-16T21:29:26.287Z,99752.73
2017-09-16T21:31:52.545Z,99749.34
2017-09-16T21:34:18.762Z,99750.30
2017-09-16T21:36:44.983Z,99742.67
2017-09-16T21:39:11.258Z,99744.20
2017-09-16T21:41:37.473Z,99744.58
2017-09-16T21:44:03.701Z,99743.80
2017-09-16T21:46:29.949Z,99751.13
2017-09-16T21:48:56.152Z,99747.47
2017-09-16T21:51:22.353Z,99748.55
2017-09-16T21:53:48.598Z,99747.45
2017-09-16T21:56:14.799Z,99742.80
2017-09-16T21:58:41.001Z,99736.16
2017-09-16T22:01:07.264Z,99740.22
2017-09-16T22:03:33.464Z,99741.03
2017-09-16T22:06:00.136Z,99737.92
2017-09-16T22:08:26.476Z,99744.86
2017-09-16T22:10:52.697Z,99743.77
2017-09-16T22:13:18.911Z,99746.48
2017-09-16T22:15:45.177Z,99741.72
2017-09-16T22:18:11.400Z,99745.53
2017-09-16T22:20:37.637Z,99749.05
2017-09-16T22:23:03.912Z,99742.41
2017-09-16T22:25:30.137Z,99743.77
2017-09-16T22:27:56.355Z,99743.80
2017-09-16T22:30:22.628Z,99737.95
2017-09-16T22:32:48.849Z,99736.74
2017-09-16T22:35:15.093Z,99730.91
2017-09-16T22:37:41.384Z,99733.90
2017-09-16T22:40:07.614Z,99733.36
2017-09-16T22:42:33.837Z,99726.28
2017-09-16T22:45:00.198Z,99725.48
2017-09-16T22:47:26.426Z,99722.77
2017-09-16T22:49:52.663Z,99719.10
2017-09-16T22:52:18.951Z,99724.12
2017-09-16T22:54:45.320Z,99726.42
2017-09-16T22:57:11.541Z,99724.64
2017-09-16T22:59:37.855Z,99714.30
2017-09-16T23:02:04.215Z,99716.34
2017-09-16T23:04:30.442Z,99713.20
2017-09-16T23:06:56.724Z,99714.02
2017-09-16T23:09:22.935Z,99724.09
2017-09-16T23:11:49.156Z,99717.88
2017-09-16T23:14:15.423Z,99715.14
2017-09-16T23:16:41.656Z,99717.42
2017-09-16T23:19:07.980Z,99708.19
2017-09-16T23:21:34.241Z,99710.36
2017-09-16T23:24:00.453Z,99722.55
2017-09-16T23:26:26.686Z,99720.39
2017-09-16T23:28:52.983Z,99719.31
2017-09-16T23:31:19.204Z,99717.27
2017-09-16T23:33:45.424Z,99720.64
2017-09-16T23:36:11.704Z,99727.36
2017-09-16T23:38:37.947Z,99734.37
2017-09-16T23:41:04.157Z,99733.47
2017-09-16T23:43:30.507Z,99730.86
2017-09-16T23:45:56.710Z,99735.64
2017-09-16T23:48:22.935Z,99735.13
2017-09-16T23:50:49.210Z,99729.04
2017-09-16T23:53:15.433Z,99738.32
2017-09-16T23:55:41.638Z,99711.14
2017-09-16T23:58:07.899Z,99725.13
